Time;durP1;ratioP1;P1;durP2;ratioP2;P2;SDS_P1;SDS_P2;PMS_P1;PMS_P2;Temp;Humidity;BMP_temperature;BMP_pressure;BME280_temperature;BME280_humidity;BME280_pressure;Samples;Min_cycle;Max_cycle;Signal;HPM_P1;HPM_P2
2024/02/07 00:02:04;;;;;;;0.10;0.10;;;;;;;;;;4995604;28;20088;-83
2024/02/07 00:04:31;;;;;;;0.10;0.10;;;;;;;;;;4995640;28;20554;-84
2024/02/07 00:06:57;;;;;;;0.10;0.10;;;;;;;;;;4995463;28;20520;-84
2024/02/07 00:09:23;;;;;;;0.10;0.10;;;;;;;;;;4995429;28;20041;-84
2024/02/07 00:11:49;;;;;;;0.10;0.10;;;;;;;;;;4995343;28;20137;-83
2024/02/07 00:14:15;;;;;;;0.10;0.10;;;;;;;;;;4995266;28;20122;-84
2024/02/07 00:16:42;;;;;;;0.10;0.10;;;;;;;;;;4995557;28;20038;-84
2024/02/07 00:19:08;;;;;;;0.10;0.10;;;;;;;;;;5011519;28;20038;-85
2024/02/07 00:21:34;;;;;;;0.10;0.10;;;;;;;;;;4995383;28;20100;-83
2024/02/07 00:24:00;;;;;;;0.10;0.10;;;;;;;;;;4995353;28;20037;-84
2024/02/07 00:26:26;;;;;;;0.10;0.10;;;;;;;;;;4995143;28;20084;-84
2024/02/07 00:28:53;;;;;;;0.10;0.10;;;;;;;;;;5011360;28;20069;-84
2024/02/07 00:31:19;;;;;;;0.10;0.10;;;;;;;;;;4995397;28;20045;-84
2024/02/07 00:33:45;;;;;;;0.10;0.10;;;;;;;;;;4995143;28;20113;-84
2024/02/07 00:36:11;;;;;;;0.10;0.10;;;;;;;;;;4995300;28;20048;-84
2024/02/07 00:38:37;;;;;;;0.10;0.10;;;;;;;;;;5011476;28;20506;-84
2024/02/07 00:41:03;;;;;;;0.10;0.10;;;;;;;;;;4995096;28;20133;-84
2024/02/07 00:43:31;;;;;;;0.10;0.10;;;;;;;;;;5011016;28;20042;-85
2024/02/07 00:45:58;;;;;;;0.10;0.10;;;;;;;;;;4995013;28;20091;-84
2024/02/07 00:48:24;;;;;;;0.10;0.10;;;;;;;;;;4995220;28;20107;-84
2024/02/07 00:50:50;;;;;;;0.10;0.10;;;;;;;;;;5010922;28;20506;-84
2024/02/07 00:53:16;;;;;;;0.10;0.10;;;;;;;;;;4994777;28;20104;-85
2024/02/07 00:55:42;;;;;;;0.10;0.10;;;;;;;;;;4995176;28;20103;-84
2024/02/07 00:58:09;;;;;;;0.10;0.10;;;;;;;;;;5011185;28;20076;-84
2024/02/07 01:00:35;;;;;;;0.10;0.10;;;;;;;;;;4994919;28;20041;-84
2024/02/07 01:03:01;;;;;;;0.10;0.10;;;;;;;;;;4995003;28;20120;-84
2024/02/07 01:05:27;;;;;;;0.10;0.10;;;;;;;;;;4994946;28;20217;-84
2024/02/07 01:07:53;;;;;;;0.10;0.10;;;;;;;;;;4995097;28;20156;-85
2024/02/07 01:10:19;;;;;;;0.10;0.10;;;;;;;;;;5013411;28;20041;-84
2024/02/07 01:12:46;;;;;;;0.10;0.10;;;;;;;;;;4997514;28;20090;-84
2024/02/07 01:15:12;;;;;;;0.10;0.10;;;;;;;;;;4997460;28;20034;-84
2024/02/07 01:17:38;;;;;;;0.10;0.10;;;;;;;;;;4997368;28;20037;-84
2024/02/07 01:20:08;;;;;;;0.10;0.10;;;;;;;;;;4997651;28;20152;-83
2024/02/07 01:22:34;;;;;;;0.10;0.10;;;;;;;;;;4998000;28;20065;-85
2024/02/07 01:25:00;;;;;;;0.10;0.10;;;;;;;;;;5013643;28;20049;-84
2024/02/07 01:27:26;;;;;;;0.10;0.10;;;;;;;;;;4997198;28;20041;-85
2024/02/07 01:29:52;;;;;;;0.10;0.10;;;;;;;;;;4996981;28;20221;-84
2024/02/07 01:32:18;;;;;;;0.10;0.10;;;;;;;;;;4997069;28;20038;-84
2024/02/07 01:34:45;;;;;;;0.10;0.10;;;;;;;;;;5013437;28;20442;-85
2024/02/07 01:37:11;;;;;;;0.10;0.10;;;;;;;;;;4997160;28;20046;-85
2024/02/07 01:39:37;;;;;;;0.10;0.10;;;;;;;;;;4996935;28;20049;-84
2024/02/07 01:42:03;;;;;;;0.10;0.10;;;;;;;;;;4997154;28;20463;-85
2024/02/07 01:44:29;;;;;;;0.10;0.10;;;;;;;;;;4997045;28;20053;-85
2024/02/07 01:47:11;;;;;;;0.10;0.10;;;;;;;;;;4996999;28;20132;-84
2024/02/07 01:49:37;;;;;;;0.10;0.10;;;;;;;;;;4998899;28;20129;-85
2024/02/07 01:52:04;;;;;;;0.10;0.10;;;;;;;;;;4996761;28;20038;-85
2024/02/07 01:54:31;;;;;;;0.10;0.10;;;;;;;;;;4996793;28;20149;-84
2024/02/07 01:56:57;;;;;;;0.10;0.10;;;;;;;;;;4997253;28;20042;-84
2024/02/07 01:59:24;;;;;;;0.10;0.10;;;;;;;;;;4996995;28;20397;-84
2024/02/07 02:01:51;;;;;;;0.10;0.10;;;;;;;;;;4996763;28;20124;-84
2024/02/07 02:04:18;;;;;;;0.10;0.10;;;;;;;;;;4996640;28;20041;-84
2024/02/07 02:06:44;;;;;;;0.10;0.10;;;;;;;;;;4955941;28;1184287;-84
2024/02/07 02:09:11;;;;;;;0.10;0.10;;;;;;;;;;5014381;28;20041;-83
2024/02/07 02:11:39;;;;;;;0.10;0.10;;;;;;;;;;4997905;28;20046;-84
2024/02/07 02:14:05;;;;;;;0.10;0.10;;;;;;;;;;5013963;28;20072;-83
2024/02/07 02:16:31;;;;;;;0.10;0.10;;;;;;;;;;4997524;28;20045;-84
2024/02/07 02:18:58;;;;;;;0.90;0.30;;;;;;;;;;4997462;28;20460;-84
2024/02/07 02:21:27;;;;;;;0.10;0.10;;;;;;;;;;4997997;28;20037;-83
2024/02/07 02:24:12;;;;;;;0.10;0.10;;;;;;;;;;4998155;28;20430;-84
2024/02/07 02:26:43;;;;;;;1.35;0.85;;;;;;;;;;5014007;28;20128;-84
2024/02/07 02:29:14;;;;;;;0.10;0.10;;;;;;;;;;5013631;28;20042;-84
2024/02/07 02:31:41;;;;;;;0.10;0.10;;;;;;;;;;5013490;28;20042;-84
2024/02/07 02:34:07;;;;;;;0.10;0.10;;;;;;;;;;4997649;28;20124;-83
2024/02/07 02:36:33;;;;;;;0.10;0.10;;;;;;;;;;5014891;28;20397;-84
2024/02/07 02:38:59;;;;;;;0.50;0.50;;;;;;;;;;4997390;28;20490;-84
2024/02/07 02:41:25;;;;;;;3.42;0.20;;;;;;;;;;5013250;28;20049;-84
2024/02/07 02:43:52;;;;;;;0.10;0.10;;;;;;;;;;5013355;28;20046;-83
2024/02/07 02:46:18;;;;;;;0.10;0.10;;;;;;;;;;4996943;28;20046;-85
2024/02/07 02:48:44;;;;;;;0.10;0.10;;;;;;;;;;4997234;28;20448;-84
2024/02/07 02:51:10;;;;;;;0.10;0.10;;;;;;;;;;4996878;28;20038;-84
2024/02/07 02:53:37;;;;;;;0.20;0.20;;;;;;;;;;4996863;28;20045;-84
2024/02/07 02:56:05;;;;;;;0.10;0.10;;;;;;;;;;4996994;28;20038;-84
2024/02/07 02:58:32;;;;;;;0.10;0.10;;;;;;;;;;4997268;28;20041;-84
2024/02/07 03:00:58;;;;;;;0.10;0.10;;;;;;;;;;4997051;28;20048;-84
2024/02/07 03:03:26;;;;;;;0.10;0.10;;;;;;;;;;4996744;28;20175;-84
2024/02/07 03:05:58;;;;;;;0.10;0.10;;;;;;;;;;4996823;28;20046;-85
2024/02/07 03:08:54;;;;;;;0.30;0.30;;;;;;;;;;4997652;28;20139;-84
2024/02/07 03:11:16;;;;;;;0.10;0.10;;;;;;;;;;4999351;28;20053;-85
2024/02/07 03:13:43;;;;;;;1.60;1.50;;;;;;;;;;5013066;28;20610;-84
2024/02/07 03:16:12;;;;;;;0.10;0.10;;;;;;;;;;4996756;28;20041;-85
2024/02/07 03:18:38;;;;;;;0.10;0.10;;;;;;;;;;4996792;28;20045;-85
2024/02/07 03:21:11;;;;;;;0.10;0.10;;;;;;;;;;4996197;28;20045;-84
2024/02/07 03:23:38;;;;;;;0.20;0.20;;;;;;;;;;5012862;28;20457;-84
2024/02/07 03:26:04;;;;;;;0.10;0.10;;;;;;;;;;5012424;28;20049;-84
2024/02/07 03:28:33;;;;;;;0.10;0.10;;;;;;;;;;5012377;28;20401;-84
2024/02/07 03:30:59;;;;;;;0.10;0.10;;;;;;;;;;5011398;28;20520;-84
2024/02/07 03:33:25;;;;;;;0.20;0.20;;;;;;;;;;4996289;28;20042;-84
2024/02/07 03:35:51;;;;;;;0.10;0.10;;;;;;;;;;5012604;28;20046;-84
2024/02/07 03:38:17;;;;;;;0.10;0.10;;;;;;;;;;4996275;28;20080;-84
2024/02/07 03:40:45;;;;;;;0.10;0.10;;;;;;;;;;5012214;28;20096;-85
2024/02/07 03:43:11;;;;;;;0.10;0.10;;;;;;;;;;4996173;28;20042;-85
2024/02/07 03:45:37;;;;;;;0.20;0.20;;;;;;;;;;4996177;28;20038;-86
2024/02/07 03:48:05;;;;;;;0.20;0.20;;;;;;;;;;4996217;28;20045;-85
2024/02/07 03:50:31;;;;;;;0.10;0.10;;;;;;;;;;4995501;28;20045;-85
2024/02/07 03:52:57;;;;;;;0.10;0.10;;;;;;;;;;4995778;28;20038;-85
2024/02/07 03:55:24;;;;;;;0.10;0.10;;;;;;;;;;4995781;28;20045;-85
2024/02/07 03:57:51;;;;;;;0.10;0.10;;;;;;;;;;4995678;28;20164;-85
2024/02/07 04:00:17;;;;;;;0.10;0.10;;;;;;;;;;5011896;28;20123;-83
2024/02/07 04:02:44;;;;;;;0.10;0.10;;;;;;;;;;4995766;28;20042;-84
2024/02/07 04:05:11;;;;;;;0.10;0.10;;;;;;;;;;4995686;28;20038;-83
2024/02/07 04:07:37;;;;;;;0.10;0.10;;;;;;;;;;4995129;28;20053;-85
2024/02/07 04:10:04;;;;;;;0.10;0.10;;;;;;;;;;4995135;28;20489;-85
2024/02/07 05:17:46;;;;;;;0.10;0.10;;;;;;;;;;4994717;28;20042;-85
2024/02/07 05:20:14;;;;;;;0.10;0.10;;;;;;;;;;4994841;28;20401;-85
2024/02/07 05:22:40;;;;;;;0.10;0.10;;;;;;;;;;5010694;28;20046;-84
2024/02/07 05:25:07;;;;;;;0.10;0.10;;;;;;;;;;4994737;28;20129;-85
2024/02/07 05:27:33;;;;;;;0.28;0.28;;;;;;;;;;5010808;28;20042;-85
2024/02/07 05:29:59;;;;;;;0.10;0.10;;;;;;;;;;4994538;28;20077;-85
2024/02/07 05:32:25;;;;;;;0.10;0.10;;;;;;;;;;4994622;28;20596;-85
2024/02/07 05:34:51;;;;;;;0.10;0.10;;;;;;;;;;4994698;28;20129;-85
2024/02/07 05:37:20;;;;;;;0.10;0.10;;;;;;;;;;5010798;28;20076;-82
2024/02/07 05:39:46;;;;;;;0.10;0.10;;;;;;;;;;5010950;28;20077;-84
2024/02/07 05:42:12;;;;;;;0.10;0.10;;;;;;;;;;4994396;28;20038;-84
2024/02/07 05:44:39;;;;;;;0.10;0.10;;;;;;;;;;4994695;28;20038;-85
2024/02/07 05:47:05;;;;;;;0.10;0.10;;;;;;;;;;4994613;28;20045;-84
2024/02/07 05:49:31;;;;;;;0.10;0.10;;;;;;;;;;5010707;28;20265;-85
2024/02/07 05:51:59;;;;;;;0.10;0.10;;;;;;;;;;5010759;28;20480;-85
2024/02/07 05:54:26;;;;;;;0.10;0.10;;;;;;;;;;4996892;28;20049;-85
2024/02/07 05:56:52;;;;;;;0.10;0.10;;;;;;;;;;4998061;28;20061;-85
2024/02/07 05:59:19;;;;;;;0.10;0.10;;;;;;;;;;4997983;28;20073;-84
2024/02/07 06:01:45;;;;;;;0.10;0.10;;;;;;;;;;4997839;28;20038;-84
2024/02/07 06:04:11;;;;;;;0.10;0.10;;;;;;;;;;4997748;28;20037;-83
2024/02/07 06:06:37;;;;;;;0.17;0.17;;;;;;;;;;4997630;28;20045;-84
2024/02/07 06:09:05;;;;;;;0.10;0.10;;;;;;;;;;4997664;28;20120;-85
2024/02/07 06:11:32;;;;;;;0.10;0.10;;;;;;;;;;4997687;28;20050;-85
2024/02/07 06:14:04;;;;;;;0.10;0.10;;;;;;;;;;4997745;28;20120;-85
2024/02/07 06:16:30;;;;;;;0.10;0.10;;;;;;;;;;4997991;28;20042;-85
2024/02/07 06:18:56;;;;;;;0.10;0.10;;;;;;;;;;4997500;28;20049;-85
2024/02/07 06:21:23;;;;;;;0.10;0.10;;;;;;;;;;4997562;28;20045;-86
2024/02/07 06:23:49;;;;;;;0.10;0.10;;;;;;;;;;4997451;28;20077;-86
2024/02/07 06:26:15;;;;;;;0.10;0.10;;;;;;;;;;4997695;28;20042;-85
2024/02/07 06:28:41;;;;;;;0.10;0.10;;;;;;;;;;4997449;28;20049;-86
2024/02/07 06:31:07;;;;;;;0.10;0.10;;;;;;;;;;4997127;28;20181;-85
2024/02/07 06:33:33;;;;;;;0.10;0.10;;;;;;;;;;4997443;28;20092;-85
2024/02/07 06:35:59;;;;;;;0.10;0.10;;;;;;;;;;4997530;28;20087;-84
2024/02/07 06:38:26;;;;;;;0.10;0.10;;;;;;;;;;4997367;28;20038;-88
2024/02/07 06:40:52;;;;;;;0.10;0.10;;;;;;;;;;4997516;28;20131;-85
2024/02/07 06:43:18;;;;;;;0.10;0.10;;;;;;;;;;4997070;28;20092;-84
2024/02/07 06:45:44;;;;;;;0.10;0.10;;;;;;;;;;4997017;28;20052;-85
2024/02/07 06:48:10;;;;;;;0.10;0.10;;;;;;;;;;4996942;28;20087;-84
2024/02/07 06:50:36;;;;;;;0.10;0.10;;;;;;;;;;5012969;28;20041;-85
2024/02/07 06:53:02;;;;;;;0.10;0.10;;;;;;;;;;4996929;28;20046;-85
2024/02/07 06:55:29;;;;;;;0.10;0.10;;;;;;;;;;5013323;28;20040;-84
2024/02/07 06:57:55;;;;;;;0.10;0.10;;;;;;;;;;4997285;28;20483;-84
2024/02/07 07:00:21;;;;;;;0.10;0.10;;;;;;;;;;4996664;28;20049;-85
2024/02/07 07:02:47;;;;;;;0.10;0.10;;;;;;;;;;5012942;28;20096;-84
2024/02/07 07:05:13;;;;;;;0.10;0.10;;;;;;;;;;5011975;28;20107;-84
2024/02/07 07:07:39;;;;;;;0.10;0.10;;;;;;;;;;4996401;28;20501;-83
2024/02/07 07:10:05;;;;;;;0.10;0.10;;;;;;;;;;5012780;28;20052;-85
2024/02/07 07:12:31;;;;;;;0.10;0.10;;;;;;;;;;4996905;28;20462;-84
2024/02/07 07:14:58;;;;;;;0.10;0.10;;;;;;;;;;4996790;28;20394;-85
2024/02/07 07:17:24;;;;;;;0.10;0.10;;;;;;;;;;5012898;28;20188;-84
2024/02/07 07:19:50;;;;;;;0.10;0.10;;;;;;;;;;5012600;28;20045;-84
2024/02/07 07:22:16;;;;;;;0.10;0.10;;;;;;;;;;4996578;28;20235;-83
2024/02/07 07:24:42;;;;;;;0.10;0.10;;;;;;;;;;4996306;28;20049;-84
2024/02/07 07:27:08;;;;;;;0.10;0.10;;;;;;;;;;4996316;28;20053;-84
2024/02/07 07:29:35;;;;;;;0.10;0.10;;;;;;;;;;4996059;28;20049;-84
2024/02/07 07:32:01;;;;;;;0.10;0.10;;;;;;;;;;4996332;28;20132;-84
2024/02/07 07:34:27;;;;;;;0.10;0.10;;;;;;;;;;4996278;28;20038;-85
2024/02/07 07:36:53;;;;;;;0.10;0.10;;;;;;;;;;4996120;28;20038;-85
2024/02/07 07:39:19;;;;;;;0.10;0.10;;;;;;;;;;5012495;28;20433;-85
2024/02/07 07:41:45;;;;;;;0.10;0.10;;;;;;;;;;4995950;28;20034;-84
2024/02/07 07:44:12;;;;;;;0.10;0.10;;;;;;;;;;4995861;28;20037;-85
2024/02/07 07:46:38;;;;;;;0.10;0.10;;;;;;;;;;4995881;28;20550;-85
2024/02/07 07:49:04;;;;;;;0.10;0.10;;;;;;;;;;5012252;28;20161;-84
2024/02/07 07:51:30;;;;;;;0.10;0.10;;;;;;;;;;4996078;28;20046;-86
2024/02/07 07:53:56;;;;;;;0.10;0.10;;;;;;;;;;4995900;28;20046;-85
2024/02/07 07:56:23;;;;;;;0.10;0.10;;;;;;;;;;4995746;28;20102;-85
2024/02/07 07:58:49;;;;;;;0.10;0.10;;;;;;;;;;4995565;28;20077;-86
2024/02/07 08:01:16;;;;;;;0.10;0.10;;;;;;;;;;5011836;28;20049;-84
2024/02/07 08:03:42;;;;;;;0.10;0.10;;;;;;;;;;5012104;28;20052;-85
2024/02/07 08:06:09;;;;;;;0.10;0.10;;;;;;;;;;4995390;28;20222;-85
2024/02/07 08:08:35;;;;;;;0.10;0.10;;;;;;;;;;4995647;28;20046;-84
2024/02/07 08:11:02;;;;;;;0.10;0.10;;;;;;;;;;4995462;28;20540;-84
2024/02/07 08:13:28;;;;;;;0.10;0.10;;;;;;;;;;4995522;28;20045;-86
2024/02/07 08:15:54;;;;;;;0.10;0.10;;;;;;;;;;5011401;28;20041;-85
2024/02/07 08:18:20;;;;;;;0.10;0.10;;;;;;;;;;4995465;28;20072;-85
2024/02/07 08:20:47;;;;;;;0.10;0.10;;;;;;;;;;4995683;28;20164;-85
2024/02/07 08:23:13;;;;;;;0.10;0.10;;;;;;;;;;4995642;28;20042;-85
2024/02/07 08:25:39;;;;;;;0.10;0.10;;;;;;;;;;4995322;28;20047;-90
2024/02/07 08:28:05;;;;;;;0.10;0.10;;;;;;;;;;4993199;28;20057;-85
2024/02/07 08:30:31;;;;;;;0.10;0.10;;;;;;;;;;4994868;28;20050;-84
2024/02/07 08:32:57;;;;;;;0.10;0.10;;;;;;;;;;5012389;28;20069;-85
2024/02/07 08:35:23;;;;;;;0.10;0.10;;;;;;;;;;5014607;28;20034;-84
2024/02/07 08:37:49;;;;;;;0.10;0.10;;;;;;;;;;5015027;28;20033;-84
2024/02/07 08:40:15;;;;;;;0.10;0.10;;;;;;;;;;5014353;28;20532;-85
2024/02/07 08:42:41;;;;;;;0.10;0.10;;;;;;;;;;5030763;28;20566;-84
2024/02/07 08:45:08;;;;;;;0.10;0.10;;;;;;;;;;5014221;28;20128;-85
2024/02/07 08:47:35;;;;;;;0.10;0.10;;;;;;;;;;5030625;28;20406;-85
2024/02/07 08:50:01;;;;;;;0.10;0.10;;;;;;;;;;5014835;28;20106;-84
2024/02/07 08:52:27;;;;;;;0.10;0.10;;;;;;;;;;5030621;28;20045;-84
2024/02/07 08:54:53;;;;;;;0.10;0.10;;;;;;;;;;5014610;28;20045;-84
2024/02/07 08:57:19;;;;;;;0.10;0.10;;;;;;;;;;5014283;28;20497;-85
2024/02/07 08:59:45;;;;;;;0.10;0.10;;;;;;;;;;5014396;28;20048;-84
2024/02/07 09:02:12;;;;;;;0.10;0.10;;;;;;;;;;5014305;28;20049;-85
2024/02/07 09:04:39;;;;;;;0.10;0.10;;;;;;;;;;5014793;28;20128;-84
2024/02/07 09:07:05;;;;;;;0.10;0.10;;;;;;;;;;5014055;28;20084;-84
2024/02/07 09:09:31;;;;;;;0.10;0.10;;;;;;;;;;5030965;28;20127;-85
2024/02/07 09:11:57;;;;;;;0.10;0.10;;;;;;;;;;5030447;28;20047;-85
2024/02/07 09:14:23;;;;;;;0.10;0.10;;;;;;;;;;5014076;28;20041;-86
2024/02/07 09:16:49;;;;;;;0.10;0.10;;;;;;;;;;5013743;28;20049;-85
2024/02/07 09:19:15;;;;;;;0.10;0.10;;;;;;;;;;5014265;28;20033;-86
2024/02/07 09:21:41;;;;;;;0.10;0.10;;;;;;;;;;5013932;28;20047;-86
2024/02/07 09:24:07;;;;;;;0.10;0.10;;;;;;;;;;5013877;28;20046;-86
2024/02/07 09:26:33;;;;;;;0.10;0.10;;;;;;;;;;5014762;28;20524;-86
2024/02/07 09:29:00;;;;;;;0.10;0.10;;;;;;;;;;5015883;28;20449;-86
2024/02/07 09:31:26;;;;;;;0.10;0.10;;;;;;;;;;5017958;28;20132;-87
2024/02/07 09:33:52;;;;;;;0.10;0.10;;;;;;;;;;5018272;28;20166;-86
2024/02/07 09:36:18;;;;;;;0.10;0.10;;;;;;;;;;5017953;28;20037;-86
2024/02/07 09:38:58;;;;;;;0.10;0.10;;;;;;;;;;5019024;28;20084;-94
2024/02/07 09:41:24;;;;;;;0.10;0.10;;;;;;;;;;5020956;28;20045;-85
2024/02/07 09:43:51;;;;;;;0.10;0.10;;;;;;;;;;5017956;28;20045;-84
2024/02/07 09:46:21;;;;;;;0.10;0.10;;;;;;;;;;5017815;28;20099;-83
2024/02/07 09:48:47;;;;;;;0.10;0.10;;;;;;;;;;5018214;28;20060;-84
2024/02/07 09:51:15;;;;;;;0.10;0.10;;;;;;;;;;5033802;28;20096;-83
2024/02/07 09:53:41;;;;;;;0.10;0.10;;;;;;;;;;5017848;28;20124;-84
2024/02/07 09:56:07;;;;;;;0.10;0.10;;;;;;;;;;5034147;28;20465;-84
2024/02/07 09:58:33;;;;;;;0.10;0.10;;;;;;;;;;5033966;28;20042;-83
2024/02/07 10:00:59;;;;;;;0.10;0.10;;;;;;;;;;5033871;28;20052;-84
2024/02/07 10:03:27;;;;;;;0.10;0.10;;;;;;;;;;5017345;28;20041;-83
2024/02/07 10:05:54;;;;;;;0.10;0.10;;;;;;;;;;5033451;28;20127;-82
2024/02/07 10:08:20;;;;;;;0.10;0.10;;;;;;;;;;5018753;28;20050;-82
2024/02/07 10:10:47;;;;;;;0.10;0.10;;;;;;;;;;5013789;28;20097;-82
2024/02/07 10:13:14;;;;;;;0.10;0.10;;;;;;;;;;4998101;28;20108;-83
2024/02/07 10:15:41;;;;;;;0.10;0.10;;;;;;;;;;5030514;28;20104;-82
2024/02/07 10:18:07;;;;;;;0.10;0.10;;;;;;;;;;4997718;28;20038;-82
2024/02/07 10:20:33;;;;;;;0.10;0.10;;;;;;;;;;5014042;28;20448;-83
2024/02/07 10:22:59;;;;;;;0.10;0.10;;;;;;;;;;4997612;28;20129;-83
2024/02/07 10:25:25;;;;;;;0.10;0.10;;;;;;;;;;4997485;28;20161;-82
2024/02/07 10:28:00;;;;;;;0.10;0.10;;;;;;;;;;4997508;28;20060;-84
2024/02/07 10:30:29;;;;;;;0.10;0.10;;;;;;;;;;5013974;28;20041;-82
2024/02/07 10:32:56;;;;;;;0.10;0.10;;;;;;;;;;4997307;28;20046;-83
2024/02/07 10:35:22;;;;;;;0.10;0.10;;;;;;;;;;4997517;28;20072;-83
2024/02/07 10:37:52;;;;;;;0.10;0.10;;;;;;;;;;4997306;28;20038;-83
2024/02/07 10:40:19;;;;;;;0.10;0.10;;;;;;;;;;4997524;28;20046;-82
2024/02/07 10:42:52;;;;;;;0.10;0.10;;;;;;;;;;4997180;28;20072;-82
2024/02/07 10:45:18;;;;;;;0.10;0.10;;;;;;;;;;4997841;28;20076;-85
2024/02/07 10:47:44;;;;;;;0.10;0.10;;;;;;;;;;4998278;28;20042;-84
2024/02/07 10:50:11;;;;;;;0.10;0.10;;;;;;;;;;5013003;28;20041;-86
2024/02/07 10:52:40;;;;;;;0.10;0.10;;;;;;;;;;4997126;28;20088;-83
2024/02/07 10:55:09;;;;;;;0.10;0.10;;;;;;;;;;4997067;28;20127;-85
2024/02/07 10:57:38;;;;;;;0.10;0.10;;;;;;;;;;4997077;28;20041;-86
2024/02/07 11:00:05;;;;;;;0.10;0.10;;;;;;;;;;4996751;28;20038;-85
2024/02/07 11:02:31;;;;;;;0.10;0.10;;;;;;;;;;4997237;28;20498;-86
2024/02/07 11:04:57;;;;;;;0.10;0.10;;;;;;;;;;4996879;28;20042;-85
2024/02/07 11:07:23;;;;;;;0.10;0.10;;;;;;;;;;4996686;28;20065;-85
2024/02/07 11:09:49;;;;;;;1.13;0.30;;;;;;;;;;4996306;28;20485;-84
2024/02/07 11:12:15;;;;;;;0.10;0.10;;;;;;;;;;4996494;28;20516;-86
2024/02/07 11:14:47;;;;;;;0.15;0.13;;;;;;;;;;4996649;28;20096;-86
2024/02/07 11:17:14;;;;;;;0.10;0.10;;;;;;;;;;5012830;28;20045;-86
2024/02/07 11:19:40;;;;;;;0.25;0.25;;;;;;;;;;4996471;28;20072;-86
2024/02/07 11:22:06;;;;;;;0.20;0.20;;;;;;;;;;4996588;28;20491;-85
2024/02/07 11:24:33;;;;;;;0.35;0.35;;;;;;;;;;4996397;28;20076;-85
2024/02/07 11:27:00;;;;;;;0.60;0.60;;;;;;;;;;5012809;28;20080;-87
2024/02/07 11:29:27;;;;;;;0.30;0.30;;;;;;;;;;4997019;28;20497;-87
2024/02/07 11:31:54;;;;;;;0.13;0.13;;;;;;;;;;4996547;28;20034;-88
2024/02/07 11:34:20;;;;;;;0.10;0.10;;;;;;;;;;4997316;28;20042;-89
2024/02/07 11:36:53;;;;;;;0.10;0.10;;;;;;;;;;4997134;28;20042;-86
2024/02/07 11:39:22;;;;;;;0.10;0.10;;;;;;;;;;4996895;28;20079;-87
2024/02/07 11:41:49;;;;;;;0.10;0.10;;;;;;;;;;4996726;28;20383;-86
2024/02/07 11:44:15;;;;;;;0.13;0.13;;;;;;;;;;4997397;28;20155;-86
2024/02/07 11:46:56;;;;;;;0.57;0.57;;;;;;;;;;4997463;28;20041;-86
2024/02/07 11:49:26;;;;;;;0.10;0.10;;;;;;;;;;4997040;28;20038;-85
2024/02/07 11:51:59;;;;;;;0.10;0.10;;;;;;;;;;4997698;28;20076;-84
2024/02/07 11:54:30;;;;;;;0.10;0.10;;;;;;;;;;4996657;28;20049;-85
2024/02/07 11:56:58;;;;;;;0.10;0.10;;;;;;;;;;4998717;28;20137;-85
2024/02/07 11:59:24;;;;;;;0.10;0.10;;;;;;;;;;4996095;28;20045;-85
2024/02/07 12:01:50;;;;;;;0.10;0.10;;;;;;;;;;4995748;28;20048;-86
2024/02/07 12:04:16;;;;;;;0.15;0.15;;;;;;;;;;4995635;28;20042;-85
2024/02/07 12:06:43;;;;;;;0.10;0.10;;;;;;;;;;4995316;28;20056;-86
2024/02/07 12:09:09;;;;;;;0.10;0.10;;;;;;;;;;5011937;28;20045;-87
2024/02/07 12:11:35;;;;;;;0.10;0.10;;;;;;;;;;4995422;28;20046;-86
2024/02/07 12:14:01;;;;;;;0.10;0.10;;;;;;;;;;4995474;28;20038;-86
2024/02/07 12:16:27;;;;;;;0.10;0.10;;;;;;;;;;4995729;28;20041;-86
2024/02/07 12:18:53;;;;;;;0.10;0.10;;;;;;;;;;4995677;28;20046;-86
2024/02/07 12:21:20;;;;;;;0.10;0.10;;;;;;;;;;4995255;28;20042;-86
2024/02/07 12:23:46;;;;;;;0.10;0.10;;;;;;;;;;4994411;28;20142;-85
2024/02/07 12:26:12;;;;;;;0.10;0.10;;;;;;;;;;5011348;28;20042;-85
2024/02/07 12:28:38;;;;;;;0.10;0.10;;;;;;;;;;5011713;28;20048;-85
2024/02/07 12:31:04;;;;;;;0.10;0.10;;;;;;;;;;5027735;28;20045;-85
2024/02/07 12:33:30;;;;;;;0.10;0.10;;;;;;;;;;5011843;28;20509;-87
2024/02/07 12:35:57;;;;;;;0.10;0.10;;;;;;;;;;5011381;28;20064;-85
2024/02/07 12:38:23;;;;;;;0.10;0.10;;;;;;;;;;5011776;28;20041;-85
2024/02/07 12:40:50;;;;;;;0.10;0.10;;;;;;;;;;5011448;28;20049;-85
2024/02/07 12:43:19;;;;;;;0.10;0.10;;;;;;;;;;5011414;28;20084;-85
2024/02/07 12:45:52;;;;;;;0.10;0.10;;;;;;;;;;5027907;28;20493;-85
2024/02/07 12:48:18;;;;;;;0.10;0.10;;;;;;;;;;5011160;28;20045;-86
2024/02/07 12:50:44;;;;;;;0.10;0.10;;;;;;;;;;5011055;28;20149;-85
2024/02/07 12:53:11;;;;;;;0.10;0.10;;;;;;;;;;5028030;28;20044;-85
2024/02/07 12:55:37;;;;;;;0.10;0.10;;;;;;;;;;5011573;28;20044;-85
2024/02/07 12:58:03;;;;;;;0.10;0.10;;;;;;;;;;5011287;28;20049;-85
2024/02/07 13:00:29;;;;;;;0.10;0.10;;;;;;;;;;5011220;28;20042;-85
2024/02/07 13:02:56;;;;;;;0.10;0.10;;;;;;;;;;5029146;28;20042;-84
2024/02/07 13:05:22;;;;;;;0.10;0.10;;;;;;;;;;5015618;28;20046;-85
2024/02/07 13:07:48;;;;;;;0.10;0.10;;;;;;;;;;5015050;28;20536;-84
2024/02/07 13:10:14;;;;;;;0.10;0.10;;;;;;;;;;5015274;28;20409;-84
2024/02/07 13:12:41;;;;;;;0.10;0.10;;;;;;;;;;5031911;28;20427;-86
2024/02/07 13:15:07;;;;;;;0.10;0.10;;;;;;;;;;5015038;28;20052;-86
2024/02/07 13:17:36;;;;;;;0.10;0.10;;;;;;;;;;5031663;28;20417;-86
2024/02/07 13:20:06;;;;;;;0.10;0.10;;;;;;;;;;5015012;28;20133;-84
2024/02/07 13:22:34;;;;;;;0.10;0.10;;;;;;;;;;5015169;28;20046;-86
2024/02/07 13:25:10;;;;;;;0.10;0.10;;;;;;;;;;5031467;28;20132;-86
2024/02/07 13:27:39;;;;;;;0.10;0.10;;;;;;;;;;5031255;28;20084;-83
2024/02/07 13:30:06;;;;;;;0.10;0.10;;;;;;;;;;5030772;28;20042;-84
2024/02/07 13:32:32;;;;;;;0.10;0.10;;;;;;;;;;5014937;28;20125;-84
2024/02/07 13:34:58;;;;;;;0.10;0.10;;;;;;;;;;5014564;28;20042;-84
2024/02/07 13:37:24;;;;;;;0.10;0.10;;;;;;;;;;5031117;28;20038;-84
2024/02/07 13:39:50;;;;;;;0.10;0.10;;;;;;;;;;5030775;28;20038;-84
2024/02/07 13:42:16;;;;;;;0.10;0.10;;;;;;;;;;5014475;28;20485;-84
2024/02/07 13:44:42;;;;;;;0.10;0.10;;;;;;;;;;5014346;28;20041;-85
2024/02/07 13:47:09;;;;;;;0.10;0.10;;;;;;;;;;5014374;28;20041;-85
2024/02/07 13:49:35;;;;;;;0.10;0.10;;;;;;;;;;5014243;28;20041;-85
2024/02/07 13:52:02;;;;;;;0.10;0.10;;;;;;;;;;5014266;28;20037;-84
2024/02/07 13:54:29;;;;;;;0.10;0.10;;;;;;;;;;5014509;28;20046;-86
2024/02/07 13:56:55;;;;;;;0.10;0.10;;;;;;;;;;5031033;28;20030;-85
2024/02/07 13:59:21;;;;;;;0.10;0.10;;;;;;;;;;5030662;28;20132;-85
2024/02/07 14:01:47;;;;;;;0.10;0.10;;;;;;;;;;5030858;28;20038;-84
2024/02/07 14:04:13;;;;;;;0.10;0.10;;;;;;;;;;5030574;28;20406;-84
2024/02/07 14:06:39;;;;;;;0.10;0.10;;;;;;;;;;5030301;28;20520;-85
2024/02/07 14:09:05;;;;;;;0.10;0.10;;;;;;;;;;5014294;28;20425;-85
2024/02/07 14:11:32;;;;;;;0.10;0.10;;;;;;;;;;5013821;28;20056;-85
2024/02/07 14:13:58;;;;;;;0.10;0.10;;;;;;;;;;5013257;28;20033;-84
2024/02/07 14:16:24;;;;;;;0.10;0.10;;;;;;;;;;5030397;28;20041;-86
2024/02/07 14:18:50;;;;;;;0.10;0.10;;;;;;;;;;5014111;28;20371;-86
2024/02/07 14:21:16;;;;;;;0.10;0.10;;;;;;;;;;5013706;28;20045;-83
2024/02/07 14:23:42;;;;;;;0.10;0.10;;;;;;;;;;5014103;28;20120;-86
2024/02/07 14:26:08;;;;;;;0.10;0.10;;;;;;;;;;5014226;28;20397;-89
2024/02/07 14:28:37;;;;;;;0.10;0.10;;;;;;;;;;5015597;28;20045;-96
2024/02/07 14:31:06;;;;;;;0.10;0.10;;;;;;;;;;5016864;28;20219;-89
2024/02/07 14:33:32;;;;;;;0.10;0.10;;;;;;;;;;5014185;28;20049;-86
2024/02/07 14:35:58;;;;;;;0.10;0.10;;;;;;;;;;5030457;28;20105;-87
2024/02/07 14:38:27;;;;;;;0.10;0.10;;;;;;;;;;5013416;28;20064;-84
2024/02/07 14:40:54;;;;;;;0.20;0.20;;;;;;;;;;5013744;28;20505;-85
2024/02/07 14:43:20;;;;;;;0.10;0.10;;;;;;;;;;5013598;28;20045;-85
2024/02/07 14:45:46;;;;;;;0.10;0.10;;;;;;;;;;5013490;28;20041;-83
2024/02/07 14:48:12;;;;;;;0.10;0.10;;;;;;;;;;5013430;28;20092;-84
2024/02/07 14:50:39;;;;;;;0.10;0.10;;;;;;;;;;5013349;28;20038;-84
2024/02/07 14:53:06;;;;;;;0.10;0.10;;;;;;;;;;5029945;28;20046;-83
2024/02/07 14:55:32;;;;;;;0.10;0.10;;;;;;;;;;5029606;28;20037;-85
2024/02/07 14:57:58;;;;;;;0.10;0.10;;;;;;;;;;5013134;28;20034;-85
2024/02/07 15:00:24;;;;;;;0.10;0.10;;;;;;;;;;5012921;28;20042;-85
2024/02/07 15:02:50;;;;;;;0.10;0.10;;;;;;;;;;5012921;28;20489;-83
2024/02/07 15:05:16;;;;;;;0.10;0.10;;;;;;;;;;5013040;28;20041;-85
2024/02/07 15:07:46;;;;;;;0.10;0.10;;;;;;;;;;5012903;28;20092;-84
2024/02/07 15:10:12;;;;;;;0.10;0.10;;;;;;;;;;5029705;28;20133;-84
2024/02/07 15:12:38;;;;;;;0.10;0.10;;;;;;;;;;5012924;28;20125;-84
2024/02/07 15:15:06;;;;;;;0.10;0.10;;;;;;;;;;5012694;28;20050;-85
2024/02/07 15:17:32;;;;;;;0.10;0.10;;;;;;;;;;5029552;28;20053;-85
2024/02/07 15:19:58;;;;;;;0.10;0.10;;;;;;;;;;5029235;28;20537;-86
2024/02/07 15:22:24;;;;;;;0.10;0.10;;;;;;;;;;5012697;28;20042;-84
2024/02/07 15:24:50;;;;;;;0.10;0.10;;;;;;;;;;5012566;28;20405;-84
2024/02/07 15:27:16;;;;;;;0.10;0.10;;;;;;;;;;5011707;28;20561;-85
2024/02/07 15:29:42;;;;;;;0.10;0.10;;;;;;;;;;5012624;28;20134;-88
2024/02/07 15:32:09;;;;;;;0.10;0.10;;;;;;;;;;5018145;28;20041;-88
2024/02/07 15:34:35;;;;;;;0.10;0.10;;;;;;;;;;5013766;28;20425;-86
2024/02/07 15:37:01;;;;;;;0.10;0.10;;;;;;;;;;5012565;28;20038;-88
2024/02/07 15:39:28;;;;;;;0.10;0.10;;;;;;;;;;5029264;28;20038;-90
2024/02/07 15:41:54;;;;;;;0.10;0.10;;;;;;;;;;5029606;28;20045;-89
2024/02/07 15:44:20;;;;;;;0.10;0.10;;;;;;;;;;5012396;28;20436;-89
2024/02/07 15:46:46;;;;;;;0.10;0.10;;;;;;;;;;5028901;28;20533;-88